WetterOnline ( https://www.wetteronline.de )

Wetter aktuell Groß Lindow

Aktuelles Wetter: Lindenberg b. Beeskow (104m)

6-stündlich | Neueste Meldungen
Ortszeit Temperatur Wetter
Mi, 29.05. 2:00 11.4° C Nebel
Di, 28.05. 20:00 12.7° C starker Regen
Di, 28.05. 14:00 15.5° C Regen
Di, 28.05. 8:00 16.2° C leichter Regen
Di, 28.05. 2:00 16.1° C bedeckt
Mo, 27.05. 20:00 18.1° C bedeckt
Mo, 27.05. 14:00 23.4° C wolkig
Mo, 27.05. 8:00 19.2° C bedeckt
Ortszeit Temperatur Wetter
Mi, 29.05. 2:00 11.4° C Nebel
Mi, 29.05. 1:50 11.4° C Nebel
Mi, 29.05. 1:40 11.5° C Nebel
Mi, 29.05. 1:30 11.8° C Nebel
Mi, 29.05. 1:20 11.8° C Nebel
Mi, 29.05. 1:10 12.0° C Nebel
Mi, 29.05. 1:00 12.1° C leicht bewölkt
Mi, 29.05. 0:30 12.0° C wolkenlos
Mi, 29.05. 0:00 12.1° C wolkenlos
Di, 28.05. 23:30 12.1° C wolkenlos
Di, 28.05. 23:00 11.9° C fast wolkenlos
Ortszeit Relative Feuchte Sichtweite
Mi, 29.05. 2:00 100% 100 m
Di, 28.05. 20:00 85% 2.6 km
Di, 28.05. 14:00 90% 50 km
Di, 28.05. 8:00 91% 27 km
Di, 28.05. 2:00 91% 24 km
Mo, 27.05. 20:00 76% 60 km
Mo, 27.05. 14:00 57% 50 km
Mo, 27.05. 8:00 72% >70 km
Ortszeit Relative Feuchte Sichtweite
Mi, 29.05. 2:00 100% 100 m
Mi, 29.05. 1:50 100% -
Mi, 29.05. 1:40 100% -
Mi, 29.05. 1:30 100% 100 m
Mi, 29.05. 1:20 100% -
Mi, 29.05. 1:10 100% -
Mi, 29.05. 1:00 99% 5.0 km
Mi, 29.05. 0:30 98% 8 km
Mi, 29.05. 0:00 98% 14 km
Di, 28.05. 23:30 97% 24 km
Di, 28.05. 23:00 95% 30 km
Ortszeit Niederschlagsmenge Niederschlagsart
Mi, 29.05. 2:00 2 l/m2 in 6 Std. Regen
Di, 28.05. 20:00 8 l/m2 in 12 Std. Regen
Di, 28.05. 14:00 3 l/m2 in 6 Std. Regen
Di, 28.05. 8:00 0.2 l/m2 in 12 Std. Regen
Di, 28.05. 2:00 0.1 l/m2 in 6 Std. Regen
Mo, 27.05. 20:00 0.0 l/m2 in 12 Std. -
Mo, 27.05. 14:00 0.0 l/m2 in 6 Std. -
Mo, 27.05. 8:00 0.0 l/m2 in 12 Std. -
Ortszeit Niederschlagsmenge Niederschlagsart
Mi, 29.05. 2:00 <0.05 l/m2 in 1 Std. Regen
Mi, 29.05. 1:50 keine Meldung -
Mi, 29.05. 1:40 keine Meldung -
Mi, 29.05. 1:30 0.0 l/m2 in 30 Min -
Mi, 29.05. 1:20 keine Meldung -
Mi, 29.05. 1:10 keine Meldung -
Mi, 29.05. 1:00 <0.05 l/m2 in 1 Std. -
Mi, 29.05. 0:30 <0.05 l/m2 in 30 Min -
Mi, 29.05. 0:00 0.0 l/m2 in 1 Std. -
Di, 28.05. 23:30 0.0 l/m2 in 30 Min -
Di, 28.05. 23:00 0.0 l/m2 in 1 Std. Regen
Ortszeit Stärke Spitze Richtung
km/h Bft. km/h Grad Sektor
Mi, 29.05. 2:00 7 2 14 140° SO
Di, 28.05. 20:00 7 2 28 300° NW
Di, 28.05. 14:00 11 2 33 280° W
Di, 28.05. 8:00 13 3 20 280° W
Di, 28.05. 2:00 9 2 26 100° O
Mo, 27.05. 20:00 11 2 29 110° O
Mo, 27.05. 14:00 14 3 25 260° W
Mo, 27.05. 8:00 7 2 22 170° S
Ortszeit Stärke Spitze Richtung
km/h Bft. km/h Grad Sektor
Mi, 29.05. 2:00 7 2 11 140° SO
Mi, 29.05. 1:50 7 2 - 140° SO
Mi, 29.05. 1:40 7 2 - 140° SO
Mi, 29.05. 1:30 7 2 11 150° SO
Mi, 29.05. 1:20 7 2 - 150° SO
Mi, 29.05. 1:10 7 2 - 160° S
Mi, 29.05. 1:00 7 2 11 160° S
Mi, 29.05. 0:30 7 2 11 170° S
Mi, 29.05. 0:00 7 2 11 160° S
Di, 28.05. 23:30 7 2 11 160° S
Di, 28.05. 23:00 6 1 9 150° SO
Ortszeit Untergrenze Bedeckung Gattung
total tief tief mittel hoch
Mi, 29.05. 2:00 <30 m 8/8 0/8 - - -
Di, 28.05. 20:00 180 m 8/8 8/8 - - -
Di, 28.05. 14:00 330 m 8/8 8/8 - - -
Di, 28.05. 8:00 330 m 8/8 8/8 - - -
Di, 28.05. 2:00 3300 m 8/8 8/8 - - -
Mo, 27.05. 20:00 1410 m 8/8 8/8 - - -
Mo, 27.05. 14:00 1140 m 7/8 2/8 - - -
Mo, 27.05. 8:00 4200 m 8/8 8/8 - - -
Ortszeit Bedeckungsgrad in Achtel und Wolkenuntergrenze
Mi, 29.05. 2:00 8(<30m)
Mi, 29.05. 1:50 8(<30m)
Mi, 29.05. 1:40 8
Mi, 29.05. 1:30 8(<30m)
Mi, 29.05. 1:20 8(<30m)
Mi, 29.05. 1:10 7
Mi, 29.05. 1:00 4(30m)
Mi, 29.05. 0:30 keine Wolken
Mi, 29.05. 0:00 keine Wolken
Di, 28.05. 23:30 keine Wolken
Di, 28.05. 23:00 1(1800m)
Ortszeit Luftdruck NN (hPa) Tendenz (hPa in 3 Std.)
Mi, 29.05. 2:00 1018 - 0,4
Di, 28.05. 20:00 1018 + 0,6
Di, 28.05. 14:00 1018 + 1,1
Di, 28.05. 8:00 1015 + 0,9
Di, 28.05. 2:00 1014 - 1,1
Mo, 27.05. 20:00 1016 + 0,1
Mo, 27.05. 14:00 1017 - 0,7
Mo, 27.05. 8:00 1018 + 0,3
Ortszeit Luftdruck NN (hPa) Tendenz (hPa in 3 Std.)
Mi, 29.05. 2:00 1018 - 0,4
Mi, 29.05. 1:50 1018 keine Meldung
Mi, 29.05. 1:40 1018 keine Meldung
Mi, 29.05. 1:30 1018 - 0,4
Mi, 29.05. 1:20 1018 keine Meldung
Mi, 29.05. 1:10 1018 keine Meldung
Mi, 29.05. 1:00 1018 - 0,1
Mi, 29.05. 0:30 1018 + 0,1
Mi, 29.05. 0:00 1018 + 0,2
Di, 28.05. 23:30 1018 + 0,3
Di, 28.05. 23:00 1018 - 0,1
Ortszeit Schneehöhe (cm)
Mi, 29.05. 2:00 0
Di, 28.05. 20:00 0
Di, 28.05. 14:00 0
Di, 28.05. 8:00 0
Di, 28.05. 2:00 0
Mo, 27.05. 20:00 0
Mo, 27.05. 14:00 0
Mo, 27.05. 8:00 0
Ortszeit Schneehöhe (cm)
Mi, 29.05. 2:00 0
Mi, 29.05. 1:50 0
Mi, 29.05. 1:40 -
Mi, 29.05. 1:30 0
Mi, 29.05. 1:20 0
Mi, 29.05. 1:10 -
Mi, 29.05. 1:00 0
Mi, 29.05. 0:30 0
Mi, 29.05. 0:00 0
Di, 28.05. 23:30 0
Di, 28.05. 23:00 0
Link zu dieser Seite / Seite empfehlen

Das Wetter in ...